Time;durP1;ratioP1;P1;durP2;ratioP2;P2;SDS_P1;SDS_P2;PMS_P1;PMS_P2;Temp;Humidity;BMP_temperature;BMP_pressure;BME280_temperature;BME280_humidity;BME280_pressure;Samples;Min_cycle;Max_cycle;Signal;HPM_P1;HPM_P2
2023/08/02 00:04:15;;;;;;;15.20;5.75;;;26.90;69.10;;;;;;6102860;22;1330427;-74
2023/08/02 00:06:41;;;;;;;21.65;7.05;;;26.90;69.30;;;;;;6184988;23;20036;-73
2023/08/02 00:09:06;;;;;;;21.83;6.07;;;26.90;69.60;;;;;;6185294;23;20001;-75
2023/08/02 00:11:32;;;;;;;18.67;6.22;;;26.90;69.80;;;;;;6185339;23;20338;-73
2023/08/02 00:13:58;;;;;;;21.77;7.97;;;26.90;69.70;;;;;;6184314;23;20013;-73
2023/08/02 00:16:23;;;;;;;19.10;6.75;;;26.90;69.50;;;;;;6183478;23;20001;-73
2023/08/02 00:18:49;;;;;;;19.65;6.63;;;26.90;70.00;;;;;;6185146;23;20060;-74
2023/08/02 00:21:15;;;;;;;21.60;6.82;;;26.90;70.00;;;;;;6185269;23;20042;-72
2023/08/02 00:23:40;;;;;;;23.00;6.65;;;26.90;70.10;;;;;;6185461;23;20384;-72
2023/08/02 00:26:06;;;;;;;22.83;6.97;;;26.80;70.10;;;;;;6185246;23;20001;-72
2023/08/02 00:28:32;;;;;;;24.38;7.15;;;26.80;70.10;;;;;;6185162;23;20004;-73
2023/08/02 00:30:57;;;;;;;22.17;6.72;;;26.80;69.70;;;;;;6185196;23;20084;-73
2023/08/02 00:33:23;;;;;;;20.02;6.25;;;26.80;69.80;;;;;;6184660;23;20500;-74
2023/08/02 00:35:49;;;;;;;20.13;6.50;;;26.80;70.00;;;;;;6184706;23;19998;-72
2023/08/02 00:38:15;;;;;;;20.23;6.88;;;26.80;70.00;;;;;;6185095;23;20415;-74
2023/08/02 00:40:41;;;;;;;17.20;6.32;;;26.80;70.00;;;;;;6185015;23;20012;-73
2023/08/02 00:43:07;;;;;;;19.23;5.90;;;26.80;69.80;;;;;;6184874;23;19997;-73
2023/08/02 00:45:35;;;;;;;25.75;6.68;;;26.80;70.00;;;;;;6184995;23;20001;-73
2023/08/02 00:48:01;;;;;;;19.17;6.57;;;26.80;70.10;;;;;;6184671;23;20048;-73
2023/08/02 00:50:29;;;;;;;16.42;6.20;;;26.80;70.00;;;;;;6184420;23;20419;-73
2023/08/02 00:52:55;;;;;;;19.77;7.45;;;26.80;70.10;;;;;;6184506;23;20013;-73
2023/08/02 00:55:21;;;;;;;19.95;6.68;;;26.80;70.20;;;;;;6184801;23;20036;-74
2023/08/02 00:57:47;;;;;;;18.60;6.45;;;26.70;70.50;;;;;;6184599;23;20028;-72
2023/08/02 01:00:13;;;;;;;23.38;6.50;;;26.70;70.50;;;;;;6185087;23;20068;-72
2023/08/02 01:02:39;;;;;;;21.20;6.38;;;26.70;70.50;;;;;;6184701;23;20391;-73
2023/08/02 01:05:05;;;;;;;19.42;6.50;;;26.60;71.00;;;;;;6184697;23;20391;-72
2023/08/02 01:07:42;;;;;;;19.85;6.85;;;26.60;70.90;;;;;;6184321;23;20001;-73
2023/08/02 01:10:32;;;;;;;24.70;6.32;;;26.60;70.40;;;;;;6184478;23;19997;-73
2023/08/02 01:12:59;;;;;;;25.55;7.13;;;26.50;71.10;;;;;;6183724;23;20071;-73
2023/08/02 01:15:27;;;;;;;20.73;6.70;;;26.50;71.30;;;;;;6184750;23;20005;-73
2023/08/02 01:17:54;;;;;;;23.38;6.43;;;26.50;71.40;;;;;;6182844;23;20094;-73
2023/08/02 01:20:20;;;;;;;20.00;6.70;;;26.50;71.50;;;;;;6184656;23;20005;-73
2023/08/02 01:22:46;;;;;;;15.70;6.38;;;26.50;71.60;;;;;;6184406;23;20028;-73
2023/08/02 01:25:12;;;;;;;19.05;6.32;;;26.50;71.70;;;;;;6184417;23;20387;-70
2023/08/02 01:27:47;;;;;;;18.52;6.70;;;26.50;71.70;;;;;;6184653;23;20531;-73
2023/08/02 01:30:16;;;;;;;21.00;6.90;;;26.50;71.50;;;;;;6184638;23;20503;-72
2023/08/02 01:32:42;;;;;;;15.77;6.20;;;26.50;71.70;;;;;;6184204;23;20020;-72
2023/08/02 01:35:09;;;;;;;18.67;6.43;;;26.50;71.80;;;;;;6184251;23;20024;-74
2023/08/02 01:37:35;;;;;;;16.02;5.88;;;26.50;72.10;;;;;;6184367;23;20443;-72
2023/08/02 01:40:02;;;;;;;18.75;5.88;;;26.50;72.30;;;;;;6184250;23;19998;-72
2023/08/02 01:42:28;;;;;;;13.23;5.53;;;26.40;72.30;;;;;;6184689;23;20008;-72
2023/08/02 01:44:53;;;;;;;18.40;6.20;;;26.50;72.40;;;;;;6183667;23;20021;-74
2023/08/02 01:47:19;;;;;;;15.35;5.40;;;26.50;72.20;;;;;;6184269;23;19997;-72
2023/08/02 01:49:45;;;;;;;11.18;5.32;;;26.50;72.20;;;;;;6184412;23;20009;-72
2023/08/02 01:52:11;;;;;;;16.73;5.80;;;26.50;72.20;;;;;;6183968;23;20533;-73
2023/08/02 01:54:36;;;;;;;15.07;5.13;;;26.50;72.30;;;;;;6184127;23;20036;-73
2023/08/02 01:57:02;;;;;;;17.92;5.80;;;26.50;72.30;;;;;;6184533;23;20005;-73
2023/08/02 01:59:28;;;;;;;15.32;5.45;;;26.50;72.30;;;;;;6184270;23;20430;-72
2023/08/02 02:01:54;;;;;;;15.00;5.50;;;26.60;72.50;;;;;;6184151;23;19997;-72
2023/08/02 02:04:19;;;;;;;16.08;6.30;;;26.50;72.70;;;;;;6184203;23;20020;-73
2023/08/02 02:06:45;;;;;;;12.85;4.95;;;26.50;72.70;;;;;;6184205;23;20016;-73
2023/08/02 02:09:11;;;;;;;14.25;5.65;;;26.50;72.80;;;;;;6184296;23;20001;-73
2023/08/02 02:11:36;;;;;;;15.30;6.28;;;26.50;72.60;;;;;;6184432;23;20011;-72
2023/08/02 02:14:02;;;;;;;15.63;5.50;;;26.50;72.70;;;;;;6184064;23;20407;-73
2023/08/02 02:16:28;;;;;;;15.75;5.63;;;26.50;72.40;;;;;;6184100;23;20021;-73
2023/08/02 02:18:54;;;;;;;18.15;6.18;;;26.40;72.40;;;;;;6184230;23;20005;-73
2023/08/02 02:21:19;;;;;;;15.30;6.35;;;26.40;72.40;;;;;;6184019;23;20001;-73
2023/08/02 02:23:45;;;;;;;16.40;5.85;;;26.30;72.40;;;;;;6184144;23;20070;-73
2023/08/02 02:26:11;;;;;;;14.68;5.88;;;26.30;72.60;;;;;;6183965;23;19997;-73
2023/08/02 02:28:37;;;;;;;12.90;6.18;;;26.30;72.60;;;;;;6184195;23;20072;-73
2023/08/02 02:31:02;;;;;;;16.60;6.28;;;26.30;72.60;;;;;;6185036;23;20021;-73
2023/08/02 02:33:28;;;;;;;21.08;6.72;;;26.30;72.50;;;;;;6183797;23;20009;-72
2023/08/02 02:35:54;;;;;;;19.17;6.78;;;26.30;72.30;;;;;;6183849;23;20100;-73
2023/08/02 02:38:20;;;;;;;18.10;6.32;;;26.30;72.40;;;;;;6182416;23;20005;-73
2023/08/02 02:40:45;;;;;;;14.80;6.57;;;26.30;72.40;;;;;;6183927;23;20001;-74
2023/08/02 02:43:11;;;;;;;12.63;5.25;;;26.20;72.50;;;;;;6183742;23;20124;-73
2023/08/02 02:45:37;;;;;;;17.33;6.50;;;26.20;72.70;;;;;;6183888;23;20423;-73
2023/08/02 02:48:02;;;;;;;15.90;5.97;;;26.10;72.70;;;;;;6184274;23;20032;-73
2023/08/02 02:50:28;;;;;;;14.55;6.70;;;26.10;73.00;;;;;;6183829;23;20060;-74
2023/08/02 02:52:54;;;;;;;13.05;6.20;;;26.00;73.00;;;;;;6183933;23;20020;-73
2023/08/02 02:55:20;;;;;;;16.98;6.40;;;25.90;73.40;;;;;;6184038;23;20415;-72
2023/08/02 02:57:45;;;;;;;16.17;6.25;;;26.00;73.30;;;;;;6184105;23;20005;-74
2023/08/02 03:00:11;;;;;;;11.15;5.88;;;25.90;73.40;;;;;;6183791;23;20009;-73
2023/08/02 03:02:37;;;;;;;13.88;6.97;;;25.90;73.30;;;;;;6183894;23;19998;-74
2023/08/02 03:05:03;;;;;;;14.02;6.22;;;25.90;73.30;;;;;;6183982;23;20028;-73
2023/08/02 03:07:29;;;;;;;13.30;5.55;;;25.80;73.20;;;;;;6183781;23;20025;-73
2023/08/02 03:09:55;;;;;;;15.82;6.28;;;25.70;73.30;;;;;;6183970;23;20344;-73
2023/08/02 03:12:21;;;;;;;12.23;5.80;;;25.80;73.10;;;;;;6183973;23;20027;-73
2023/08/02 03:14:47;;;;;;;13.10;5.82;;;25.70;73.60;;;;;;6183868;23;20008;-73
2023/08/02 03:17:13;;;;;;;13.32;6.00;;;25.60;73.50;;;;;;6183874;23;20001;-73
2023/08/02 03:19:38;;;;;;;13.10;5.90;;;25.50;73.50;;;;;;6183675;23;20313;-73
2023/08/02 03:22:05;;;;;;;12.68;5.65;;;25.50;73.70;;;;;;6184108;23;20024;-74
2023/08/02 03:24:30;;;;;;;17.98;6.18;;;25.50;73.60;;;;;;6184065;23;20001;-73
2023/08/02 03:26:57;;;;;;;13.38;5.97;;;25.50;74.10;;;;;;6184221;23;20005;-73
2023/08/02 03:29:23;;;;;;;14.30;6.82;;;25.50;73.90;;;;;;6183983;23;20059;-74
2023/08/02 03:31:48;;;;;;;16.48;6.25;;;25.50;73.80;;;;;;6185419;23;20001;-72
2023/08/02 03:34:15;;;;;;;11.75;5.40;;;25.50;73.70;;;;;;6185306;23;20431;-73
2023/08/02 03:36:42;;;;;;;12.27;5.75;;;25.50;73.90;;;;;;6185710;23;20008;-73
2023/08/02 03:39:09;;;;;;;19.48;6.60;;;25.40;74.00;;;;;;6185884;23;20464;-74
2023/08/02 03:41:34;;;;;;;14.45;5.75;;;25.40;74.00;;;;;;6185780;23;20497;-73
2023/08/02 03:44:00;;;;;;;15.98;5.97;;;25.40;74.10;;;;;;6185682;23;19997;-73
2023/08/02 03:46:26;;;;;;;11.95;5.95;;;25.40;74.10;;;;;;6185891;23;20008;-73
2023/08/02 03:48:52;;;;;;;12.50;5.50;;;25.40;74.10;;;;;;6185567;23;20486;-73
2023/08/02 03:51:17;;;;;;;17.33;6.05;;;25.40;74.00;;;;;;6185548;23;20001;-72
2023/08/02 03:53:43;;;;;;;12.75;5.68;;;25.40;73.70;;;;;;6185202;23;20020;-73
2023/08/02 03:56:09;;;;;;;15.02;5.85;;;25.30;74.10;;;;;;6185698;23;19998;-73
2023/08/02 03:58:35;;;;;;;14.43;5.95;;;25.30;73.90;;;;;;6185534;23;20021;-73
2023/08/02 04:01:00;;;;;;;16.83;6.30;;;25.30;73.90;;;;;;6185429;23;20427;-72
2023/08/02 04:03:26;;;;;;;13.52;6.55;;;25.30;73.70;;;;;;6184942;23;20020;-72
2023/08/02 04:05:52;;;;;;;15.10;6.32;;;25.30;73.90;;;;;;6185404;23;19997;-72
2023/08/02 04:08:17;;;;;;;13.18;6.03;;;25.20;73.90;;;;;;6185201;23;20001;-72
2023/08/02 04:10:43;;;;;;;12.82;6.25;;;25.20;74.20;;;;;;6185172;23;20328;-73
2023/08/02 04:13:09;;;;;;;14.10;6.20;;;25.00;74.20;;;;;;6185108;23;20009;-73
2023/08/02 04:15:34;;;;;;;13.77;6.72;;;25.00;74.20;;;;;;6185087;23;20331;-72
2023/08/02 04:18:02;;;;;;;14.98;6.93;;;25.00;74.30;;;;;;6184999;23;20060;-72
2023/08/02 04:20:28;;;;;;;15.32;6.05;;;24.90;74.50;;;;;;6185197;23;20036;-73
2023/08/02 04:22:54;;;;;;;21.38;6.53;;;25.00;74.60;;;;;;6185499;23;20009;-73
2023/08/02 04:25:19;;;;;;;16.70;5.78;;;25.00;74.50;;;;;;6185386;23;20005;-73
2023/08/02 04:27:45;;;;;;;15.50;6.47;;;25.10;74.40;;;;;;6185017;23;20008;-73
2023/08/02 04:30:11;;;;;;;18.35;6.60;;;25.10;74.30;;;;;;6185327;23;20331;-73
2023/08/02 04:32:37;;;;;;;14.05;6.13;;;25.20;74.30;;;;;;6185196;23;20011;-72
2023/08/02 04:35:03;;;;;;;18.25;6.43;;;25.20;74.00;;;;;;6185424;23;20037;-73
2023/08/02 04:37:29;;;;;;;14.00;5.78;;;25.20;73.90;;;;;;6185347;23;20001;-72
2023/08/02 04:39:55;;;;;;;11.95;5.53;;;25.20;73.80;;;;;;6184989;23;20005;-73
2023/08/02 04:42:20;;;;;;;16.10;6.30;;;25.30;73.70;;;;;;6183175;23;20012;-74
2023/08/02 04:44:46;;;;;;;13.52;6.10;;;25.30;73.60;;;;;;6184927;23;20339;-74
2023/08/02 04:47:12;;;;;;;14.07;6.28;;;25.30;73.80;;;;;;6184523;23;20039;-72
2023/08/02 04:49:37;;;;;;;12.20;5.75;;;25.30;74.00;;;;;;6184288;23;20001;-72
2023/08/02 04:52:04;;;;;;;15.73;6.72;;;25.20;74.30;;;;;;6184718;23;20043;-73
2023/08/02 04:54:29;;;;;;;14.05;6.05;;;25.20;74.20;;;;;;6184708;23;20009;-73
2023/08/02 04:56:55;;;;;;;16.73;7.57;;;25.20;74.30;;;;;;6184372;23;20024;-73
2023/08/02 04:59:23;;;;;;;21.77;7.10;;;25.30;74.10;;;;;;6184930;23;20059;-73
2023/08/02 05:01:49;;;;;;;19.55;7.40;;;25.40;74.10;;;;;;6184682;23;20004;-73
2023/08/02 05:04:14;;;;;;;17.65;6.57;;;25.40;73.60;;;;;;6184395;23;20016;-73
2023/08/02 05:06:42;;;;;;;14.05;5.72;;;25.40;73.50;;;;;;6184543;23;20367;-73
2023/08/02 05:09:08;;;;;;;16.92;6.65;;;25.40;73.40;;;;;;6184895;23;20067;-73
2023/08/02 05:11:34;;;;;;;20.17;6.75;;;25.50;73.80;;;;;;6184913;23;20431;-73
2023/08/02 05:14:00;;;;;;;18.75;6.60;;;25.40;73.50;;;;;;6184560;23;20017;-73
2023/08/02 05:16:27;;;;;;;15.10;6.25;;;25.40;73.50;;;;;;6184267;23;20088;-73
2023/08/02 05:18:52;;;;;;;18.33;6.68;;;25.40;73.50;;;;;;6184515;23;20008;-73
2023/08/02 05:21:19;;;;;;;14.68;6.28;;;25.50;73.20;;;;;;6184275;23;20001;-74
2023/08/02 05:23:45;;;;;;;14.85;6.65;;;25.60;73.20;;;;;;6184420;23;20012;-73
2023/08/02 05:26:12;;;;;;;15.45;5.93;;;25.70;72.80;;;;;;6184507;23;20005;-73
2023/08/02 05:28:39;;;;;;;16.92;6.35;;;25.90;72.60;;;;;;6184157;23;20005;-75
2023/08/02 05:31:11;;;;;;;16.13;6.18;;;26.20;71.80;;;;;;6185316;23;20027;-83
2023/08/02 05:33:37;;;;;;;13.98;5.60;;;26.50;71.60;;;;;;6187338;23;20016;-89
2023/08/02 05:36:03;;;;;;;16.88;6.50;;;26.70;70.70;;;;;;6191278;23;19997;-86
2023/08/02 05:38:32;;;;;;;12.90;6.50;;;27.10;69.90;;;;;;6185036;23;20336;-78
2023/08/02 05:41:01;;;;;;;15.38;6.68;;;27.30;69.00;;;;;;6184570;23;20052;-81
2023/08/02 05:43:27;;;;;;;12.82;6.40;;;27.70;68.80;;;;;;6185569;23;20005;-78
2023/08/02 05:45:53;;;;;;;17.02;5.90;;;27.90;67.80;;;;;;6184375;23;20450;-83
2023/08/02 05:48:19;;;;;;;15.75;6.03;;;28.20;67.30;;;;;;6186282;23;20005;-80
2023/08/02 05:50:44;;;;;;;14.38;6.47;;;28.50;66.50;;;;;;6185408;23;20147;-82
2023/08/02 05:53:10;;;;;;;16.27;6.00;;;28.70;65.90;;;;;;6183863;23;20013;-82
2023/08/02 05:55:36;;;;;;;16.73;5.82;;;28.90;65.40;;;;;;6184882;23;19997;-81
2023/08/02 05:58:01;;;;;;;20.88;6.13;;;29.10;64.90;;;;;;6191168;23;20001;-80
2023/08/02 06:00:27;;;;;;;16.33;5.88;;;29.20;64.40;;;;;;6184777;23;20077;-81
2023/08/02 06:02:53;;;;;;;20.25;7.13;;;29.40;63.90;;;;;;6185483;23;20459;-80
2023/08/02 06:05:18;;;;;;;20.42;6.43;;;29.60;64.10;;;;;;6182946;23;20013;-80
2023/08/02 06:07:44;;;;;;;18.10;6.00;;;29.90;62.90;;;;;;6184304;23;20355;-80
2023/08/02 06:10:10;;;;;;;15.43;5.70;;;30.00;62.40;;;;;;6184325;23;19997;-80
2023/08/02 06:12:35;;;;;;;24.13;6.40;;;30.00;62.20;;;;;;6184112;23;20076;-80
2023/08/02 06:15:01;;;;;;;15.70;5.63;;;30.20;62.20;;;;;;6184519;23;20012;-80
2023/08/02 06:17:27;;;;;;;16.15;5.75;;;30.50;61.70;;;;;;6184458;23;20028;-80
2023/08/02 06:19:53;;;;;;;18.90;6.47;;;30.60;61.10;;;;;;6184313;23;20002;-81
2023/08/02 06:22:19;;;;;;;15.68;5.35;;;30.70;61.00;;;;;;6184785;23;20005;-80
2023/08/02 06:24:44;;;;;;;13.55;5.53;;;30.70;60.50;;;;;;6184867;23;20462;-81
2023/08/02 06:27:10;;;;;;;19.20;5.65;;;30.70;60.10;;;;;;6184980;23;20072;-80
2023/08/02 06:29:36;;;;;;;19.52;6.43;;;30.80;60.10;;;;;;6184523;23;20331;-80
2023/08/02 06:32:02;;;;;;;19.80;6.20;;;31.00;59.70;;;;;;6182644;23;20416;-80
2023/08/02 06:34:28;;;;;;;20.00;6.82;;;31.00;59.90;;;;;;6184447;23;20013;-79
2023/08/02 06:36:53;;;;;;;25.20;7.03;;;31.10;59.40;;;;;;6184164;23;20020;-80
2023/08/02 06:39:20;;;;;;;21.48;6.85;;;31.20;59.20;;;;;;6182565;23;20005;-80
2023/08/02 06:41:45;;;;;;;15.43;5.72;;;31.30;58.80;;;;;;6183912;23;20007;-82
2023/08/02 06:44:11;;;;;;;13.80;5.70;;;31.30;58.70;;;;;;6184159;23;20025;-81
2023/08/02 06:46:37;;;;;;;17.17;6.32;;;31.20;58.60;;;;;;6182915;23;20418;-79
2023/08/02 06:49:02;;;;;;;14.45;6.03;;;31.20;58.70;;;;;;6184302;23;20001;-78
2023/08/02 06:51:28;;;;;;;15.73;5.63;;;31.30;58.40;;;;;;6184218;23;20009;-76
2023/08/02 06:53:57;;;;;;;17.23;5.55;;;31.30;58.30;;;;;;6183923;23;20008;-77
2023/08/02 06:56:23;;;;;;;15.18;5.68;;;31.10;58.30;;;;;;6184379;23;20001;-77
2023/08/02 06:58:49;;;;;;;17.92;6.22;;;31.00;58.50;;;;;;6183799;23;20005;-76
2023/08/02 07:01:17;;;;;;;20.17;6.18;;;31.00;58.70;;;;;;6183836;23;20299;-77
2023/08/02 07:03:43;;;;;;;17.48;6.13;;;31.30;58.30;;;;;;6183543;23;20435;-78
2023/08/02 07:06:15;;;;;;;17.75;5.43;;;31.60;58.00;;;;;;6185024;23;20446;-77
2023/08/02 07:08:41;;;;;;;18.35;5.88;;;31.60;57.40;;;;;;6185593;23;20108;-77
2023/08/02 07:11:08;;;;;;;18.95;6.38;;;31.70;57.10;;;;;;6185931;23;20435;-77
2023/08/02 07:13:36;;;;;;;16.60;5.38;;;31.80;57.00;;;;;;6185464;23;20023;-77
2023/08/02 07:16:02;;;;;;;14.18;5.53;;;31.90;56.70;;;;;;6185927;23;20005;-77
2023/08/02 07:18:28;;;;;;;14.52;5.50;;;32.00;56.20;;;;;;6185954;23;20001;-78
2023/08/02 07:20:54;;;;;;;14.77;5.22;;;32.00;56.20;;;;;;6185439;23;20072;-77
2023/08/02 07:23:20;;;;;;;16.73;5.95;;;32.00;56.10;;;;;;6185682;23;20080;-78
2023/08/02 07:25:46;;;;;;;15.95;5.57;;;32.00;56.00;;;;;;6185496;23;20001;-78
2023/08/02 07:28:11;;;;;;;18.52;5.88;;;32.10;55.90;;;;;;6185876;23;20009;-78
2023/08/02 07:30:37;;;;;;;14.30;5.43;;;32.10;55.60;;;;;;6186240;23;20334;-77
2023/08/02 07:33:03;;;;;;;16.55;5.55;;;32.10;55.70;;;;;;6185613;23;20020;-78
2023/08/02 07:35:29;;;;;;;15.75;5.47;;;32.20;55.30;;;;;;6185712;23;20008;-79
2023/08/02 07:37:54;;;;;;;15.70;6.22;;;32.30;55.30;;;;;;6185695;23;20004;-77
2023/08/02 07:40:20;;;;;;;16.42;5.53;;;32.30;54.90;;;;;;6186085;23;20008;-77
2023/08/02 07:42:46;;;;;;;17.15;6.45;;;32.30;54.90;;;;;;6185461;23;20001;-75
2023/08/02 07:45:12;;;;;;;17.20;5.75;;;32.30;54.70;;;;;;6185666;23;20328;-78
2023/08/02 07:47:39;;;;;;;14.75;6.50;;;32.20;54.80;;;;;;6186538;23;19997;-77
2023/08/02 07:50:06;;;;;;;14.98;5.30;;;32.20;55.00;;;;;;6187950;23;20005;-76
2023/08/02 07:52:32;;;;;;;11.57;5.28;;;32.10;54.10;;;;;;6187631;23;20001;-79
2023/08/02 07:54:58;;;;;;;13.75;5.32;;;32.10;54.40;;;;;;6187726;23;20001;-77
2023/08/02 07:57:26;;;;;;;13.75;5.45;;;32.20;54.20;;;;;;6186206;23;20001;-76
2023/08/02 07:59:52;;;;;;;15.20;4.82;;;32.10;54.00;;;;;;6186041;23;20009;-77
2023/08/02 08:02:18;;;;;;;16.52;5.30;;;32.10;54.10;;;;;;6185826;23;20005;-77
2023/08/02 08:04:44;;;;;;;11.00;5.40;;;32.10;54.20;;;;;;6185503;23;20099;-77
2023/08/02 08:07:10;;;;;;;12.75;5.35;;;32.10;54.10;;;;;;6185620;23;20396;-79
2023/08/02 08:09:35;;;;;;;15.20;5.38;;;32.00;54.20;;;;;;6185741;23;20081;-77
2023/08/02 08:12:05;;;;;;;13.73;5.28;;;32.00;54.10;;;;;;6185669;23;20025;-78
2023/08/02 08:14:32;;;;;;;14.65;5.72;;;32.00;54.10;;;;;;6185279;23;20089;-77
2023/08/02 08:16:58;;;;;;;14.25;5.38;;;31.80;54.90;;;;;;6185009;23;20021;-78
2023/08/02 08:19:27;;;;;;;12.98;5.30;;;31.70;54.90;;;;;;6185251;23;20005;-77
2023/08/02 08:21:53;;;;;;;16.77;6.80;;;31.70;54.70;;;;;;6185817;23;20099;-77
2023/08/02 08:24:20;;;;;;;14.10;5.10;;;31.60;54.70;;;;;;6185260;23;20442;-77
2023/08/02 08:26:46;;;;;;;16.17;5.20;;;31.50;54.90;;;;;;6185033;23;20446;-76
2023/08/02 08:29:11;;;;;;;12.68;5.20;;;31.50;55.10;;;;;;6185340;23;20009;-77
2023/08/02 08:31:37;;;;;;;15.00;5.38;;;31.50;55.20;;;;;;6185184;23;20005;-79
2023/08/02 08:34:03;;;;;;;17.30;5.63;;;31.40;55.30;;;;;;6185155;23;20442;-78
2023/08/02 08:36:29;;;;;;;13.52;5.50;;;31.30;55.60;;;;;;6185143;23;20028;-77
2023/08/02 08:38:56;;;;;;;17.30;6.13;;;31.30;55.70;;;;;;6185086;23;20067;-76
2023/08/02 08:41:21;;;;;;;16.63;5.47;;;31.20;55.70;;;;;;6185358;23;20001;-77
2023/08/02 08:43:47;;;;;;;15.10;5.40;;;31.10;55.80;;;;;;6184998;23;20011;-77
2023/08/02 08:46:13;;;;;;;14.40;5.20;;;31.10;56.00;;;;;;6185227;23;20024;-77
2023/08/02 08:48:39;;;;;;;16.42;5.20;;;31.10;56.10;;;;;;6186071;23;20004;-77
2023/08/02 08:51:05;;;;;;;18.08;6.18;;;31.00;55.80;;;;;;6185513;23;20037;-77
2023/08/02 08:53:36;;;;;;;15.70;5.60;;;31.00;55.70;;;;;;6185199;23;20100;-77
2023/08/02 08:56:03;;;;;;;16.52;5.55;;;30.90;55.20;;;;;;6185275;23;20171;-78
2023/08/02 08:58:33;;;;;;;13.68;4.90;;;30.90;55.40;;;;;;6184004;23;20359;-78
2023/08/02 09:01:03;;;;;;;16.33;5.78;;;31.00;54.80;;;;;;6183352;23;20382;-76
2023/08/02 09:03:29;;;;;;;14.90;5.03;;;31.00;55.10;;;;;;6183137;23;20017;-76
2023/08/02 09:06:03;;;;;;;12.07;5.13;;;30.90;54.70;;;;;;6185281;23;20476;-77
2023/08/02 09:08:29;;;;;;;15.63;5.10;;;31.00;54.40;;;;;;6185032;23;20064;-78
2023/08/02 09:10:55;;;;;;;13.07;5.10;;;30.90;54.50;;;;;;6184757;23;19989;-77
2023/08/02 09:13:25;;;;;;;18.90;5.20;;;30.80;54.80;;;;;;6184498;23;20016;-78
2023/08/02 09:16:20;;;;;;;11.30;5.25;;;30.70;55.20;;;;;;6184531;23;20001;-76
2023/08/02 09:18:47;;;;;;;16.60;5.30;;;30.60;55.30;;;;;;6159034;23;20028;-76
2023/08/02 09:21:15;;;;;;;15.55;5.45;;;30.60;55.10;;;;;;6182682;23;20081;-77
2023/08/02 09:24:07;;;;;;;17.88;5.95;;;30.70;54.80;;;;;;6184651;23;20031;-76
2023/08/02 09:26:33;;;;;;;15.18;5.07;;;30.70;54.90;;;;;;6179190;23;20313;-77
2023/08/02 09:28:59;;;;;;;12.07;4.97;;;30.70;54.80;;;;;;6183925;23;20004;-76
2023/08/02 09:31:26;;;;;;;13.23;5.05;;;30.80;54.90;;;;;;6183141;23;20005;-76
2023/08/02 09:33:53;;;;;;;13.10;5.38;;;30.80;54.70;;;;;;6184656;23;20039;-79
2023/08/02 09:36:28;;;;;;;15.10;5.38;;;30.80;54.70;;;;;;6184945;23;20389;-77
2023/08/02 09:39:01;;;;;;;14.02;5.55;;;30.80;54.70;;;;;;6184648;23;20444;-78
2023/08/02 09:41:28;;;;;;;12.77;4.82;;;30.80;54.50;;;;;;6184656;23;20072;-77
2023/08/02 09:43:55;;;;;;;14.60;5.50;;;30.80;54.80;;;;;;6184463;23;20101;-76
2023/08/02 09:46:25;;;;;;;26.13;5.97;;;30.90;54.80;;;;;;6185075;23;20024;-78
2023/08/02 09:48:51;;;;;;;17.58;5.60;;;30.90;54.50;;;;;;6184903;23;20495;-78
2023/08/02 09:51:17;;;;;;;13.27;5.28;;;31.00;54.70;;;;;;6184984;23;20004;-78
2023/08/02 09:53:54;;;;;;;12.45;5.63;;;31.00;54.00;;;;;;6184502;23;20383;-77
2023/08/02 09:56:23;;;;;;;12.40;4.95;;;31.00;54.00;;;;;;6184761;23;20383;-78
2023/08/02 09:58:52;;;;;;;12.90;5.03;;;30.90;54.10;;;;;;6184574;23;20000;-77
2023/08/02 10:01:18;;;;;;;14.05;5.40;;;30.90;54.00;;;;;;6184563;23;20005;-79
2023/08/02 10:03:45;;;;;;;15.00;4.80;;;30.90;54.20;;;;;;6184301;23;20502;-78
2023/08/02 10:06:12;;;;;;;14.73;4.50;;;30.90;54.20;;;;;;6184306;23;20446;-77
2023/08/02 10:08:40;;;;;;;13.50;5.07;;;30.90;54.10;;;;;;6182743;23;20024;-78
2023/08/02 10:11:07;;;;;;;16.85;5.80;;;31.00;54.30;;;;;;6184827;23;20009;-77
2023/08/02 10:13:38;;;;;;;15.18;5.25;;;31.10;54.20;;;;;;6184549;23;20016;-78
2023/08/02 10:16:04;;;;;;;15.50;5.32;;;31.20;54.10;;;;;;6184515;23;20028;-77
2023/08/02 10:18:33;;;;;;;16.42;4.68;;;31.30;54.10;;;;;;6184442;23;20443;-77
2023/08/02 10:21:00;;;;;;;14.48;4.85;;;31.40;54.40;;;;;;6184755;23;20044;-76
2023/08/02 10:23:27;;;;;;;14.52;5.78;;;31.50;54.40;;;;;;6184412;23;20005;-78
2023/08/02 10:25:53;;;;;;;11.75;4.75;;;31.60;54.40;;;;;;6184327;23;20075;-76
2023/08/02 10:28:20;;;;;;;12.43;4.88;;;31.60;54.80;;;;;;6184276;23;20008;-76
2023/08/02 10:30:46;;;;;;;14.73;5.50;;;31.60;53.90;;;;;;6184257;23;20005;-76
2023/08/02 10:33:14;;;;;;;15.77;4.95;;;31.60;53.90;;;;;;6184246;23;20340;-78
2023/08/02 10:35:59;;;;;;;11.45;4.90;;;31.60;53.90;;;;;;6184486;23;20009;-78
2023/08/02 10:38:46;;;;;;;11.38;4.45;;;31.60;53.60;;;;;;6184356;23;20475;-78
2023/08/02 10:41:16;;;;;;;10.20;4.72;;;31.50;53.50;;;;;;6186658;23;20005;-76
2023/08/02 10:43:57;;;;;;;17.42;5.38;;;31.50;52.40;;;;;;6184489;23;20404;-78
2023/08/02 10:46:26;;;;;;;9.50;4.40;;;31.50;52.30;;;;;;6186358;23;20005;-76
2023/08/02 10:48:53;;;;;;;12.90;5.25;;;31.50;53.00;;;;;;6186145;23;20001;-76
2023/08/02 10:51:30;;;;;;;14.20;5.03;;;31.50;52.80;;;;;;6186223;23;20001;-76
2023/08/02 10:54:22;;;;;;;18.20;9.52;;;31.60;52.80;;;;;;6186340;23;20088;-77
2023/08/02 10:56:54;;;;;;;15.98;9.38;;;31.70;51.90;;;;;;6186041;23;19997;-76
2023/08/02 10:59:23;;;;;;;15.88;6.20;;;31.80;51.70;;;;;;6186876;23;20001;-78
2023/08/02 11:01:59;;;;;;;14.07;5.80;;;31.90;52.50;;;;;;6186650;23;19997;-77
2023/08/02 11:04:26;;;;;;;14.73;4.97;;;32.00;52.50;;;;;;6185935;23;20009;-78
2023/08/02 11:06:52;;;;;;;10.45;5.00;;;32.10;52.60;;;;;;6185996;23;20051;-77
2023/08/02 11:09:28;;;;;;;11.13;4.60;;;32.20;52.40;;;;;;6185993;23;20005;-77
2023/08/02 11:11:54;;;;;;;13.52;4.40;;;32.30;52.20;;;;;;6186169;23;20001;-76
2023/08/02 11:14:27;;;;;;;10.75;4.40;;;32.40;51.80;;;;;;6186057;23;20023;-77
2023/08/02 11:16:54;;;;;;;11.75;4.53;;;32.50;51.90;;;;;;6185883;23;20001;-77
2023/08/02 11:19:21;;;;;;;10.65;4.28;;;32.60;52.30;;;;;;6186100;23;20005;-76
2023/08/02 11:21:55;;;;;;;11.45;4.38;;;32.60;51.60;;;;;;6185389;23;19997;-75
2023/08/02 11:24:20;;;;;;;;;;;32.60;51.20;;;;;;6186834;23;19997;-76
2023/08/02 11:26:54;;;;;;;14.00;4.80;;;32.70;51.10;;;;;;6186299;23;20191;-77
2023/08/02 11:29:20;;;;;;;14.38;4.70;;;32.70;51.20;;;;;;6185791;23;20068;-77
2023/08/02 11:31:46;;;;;;;11.27;4.70;;;32.70;51.00;;;;;;6186547;23;20334;-76
2023/08/02 11:34:18;;;;;;;14.38;4.50;;;32.70;51.00;;;;;;6186118;23;20017;-76
2023/08/02 11:36:47;;;;;;;11.20;4.63;;;32.70;50.90;;;;;;6184637;23;20422;-78
2023/08/02 11:39:16;;;;;;;15.10;3.85;;;32.60;50.60;;;;;;6186159;23;20001;-77
2023/08/02 11:41:42;;;;;;;17.20;4.82;;;32.60;50.50;;;;;;6186037;23;20012;-77
2023/08/02 11:44:18;;;;;;;12.70;4.60;;;32.60;50.30;;;;;;6185552;23;20408;-76
2023/08/02 11:46:52;;;;;;;10.93;4.75;;;32.70;50.10;;;;;;6185851;23;20016;-77
2023/08/02 11:49:17;;;;;;;12.80;5.25;;;32.80;49.80;;;;;;6185694;23;20005;-77
2023/08/02 11:51:43;;;;;;;11.32;4.53;;;32.90;49.40;;;;;;6185333;23;20068;-77
2023/08/02 11:54:09;;;;;;;10.80;4.30;;;32.90;49.10;;;;;;6185720;23;20016;-78
2023/08/02 11:56:36;;;;;;;9.82;4.63;;;33.00;49.10;;;;;;6185458;23;20427;-77
2023/08/02 11:59:02;;;;;;;15.80;4.32;;;33.00;49.00;;;;;;6185458;23;20029;-78
2023/08/02 12:01:28;;;;;;;10.35;3.97;;;33.00;48.80;;;;;;6185861;23;20008;-78
2023/08/02 12:03:58;;;;;;;12.88;4.40;;;33.10;48.50;;;;;;6185803;23;20041;-78
2023/08/02 12:06:25;;;;;;;14.07;4.55;;;33.20;48.60;;;;;;6185784;23;20099;-79
2023/08/02 12:09:00;;;;;;;15.95;5.45;;;33.20;51.50;;;;;;6185394;23;20029;-79
2023/08/02 12:11:26;;;;;;;15.70;4.70;;;33.20;52.70;;;;;;6185673;23;20061;-78
2023/08/02 12:13:52;;;;;;;18.23;5.45;;;33.30;52.80;;;;;;6185441;23;20099;-78
2023/08/02 12:16:18;;;;;;;15.13;4.63;;;33.30;53.60;;;;;;6185729;23;20005;-78
2023/08/02 12:18:51;;;;;;;16.88;4.70;;;33.40;54.00;;;;;;6185743;23;20005;-78
2023/08/02 12:21:17;;;;;;;;;;;33.40;54.20;;;;;;6185879;23;20008;-77
2023/08/02 12:23:43;;;;;;;15.70;4.53;;;33.40;54.10;;;;;;6183731;23;20204;-77
2023/08/02 12:26:08;;;;;;;13.43;4.28;;;33.40;54.60;;;;;;6185298;23;20072;-78
2023/08/02 12:28:46;;;;;;;10.32;4.35;;;33.40;54.20;;;;;;6185309;23;20008;-76
2023/08/02 12:31:12;;;;;;;15.13;4.60;;;33.40;54.00;;;;;;6185507;23;20001;-77
2023/08/02 12:33:38;;;;;;;14.63;4.40;;;33.40;54.10;;;;;;6185244;23;20067;-79
2023/08/02 12:36:04;;;;;;;13.95;4.28;;;33.40;54.40;;;;;;6185587;23;19997;-78
2023/08/02 12:38:31;;;;;;;17.65;4.20;;;33.40;54.50;;;;;;6185390;23;20012;-78
2023/08/02 12:40:57;;;;;;;17.88;5.03;;;33.60;54.80;;;;;;6185812;23;19997;-79